Arrow Rock, Missouri
Current Conditions -  °F | °C
As of 4:55 AM on Thursday 23 Oct 2014 (Local Time) from KVER Reporting Station
Clear Clear  
Wind Chill: 46°   Ceiling: Unl
Heat Index: 49°   Visibility: 10mi
Dew Point: 44°   Wind: 6mph
Humidity: 83%   Direction: 150°SSE
Pressure: 30.14"   Gusts: NA
Location:  39.07°N, 92.95°W
Report Text: KVER 230955Z AUTO 15005KT 10SM CLR 09/07 A3014 RMK AO2 T00930066
Loading
Personal Weather Stations






























Interactive Weather Map
Tropical Storm Tracking
New forecast layout! Learn more

10-Day Weather Forecast

Advertisements
Track Severe Weather on mobile